sensor_id;sensor_type;location;lat;lon;timestamp;temperature;humidity
74178;DHT22;62540;48.456;-4.456;2023-04-25T00:00:25;12.00;62.40
74178;DHT22;62540;48.456;-4.456;2023-04-25T00:02:50;12.01;62.19
74178;DHT22;62540;48.456;-4.456;2023-04-25T00:05:16;11.97;62.19
74178;DHT22;62540;48.456;-4.456;2023-04-25T00:07:42;11.94;62.25
74178;DHT22;62540;48.456;-4.456;2023-04-25T00:10:09;11.94;62.34
74178;DHT22;62540;48.456;-4.456;2023-04-25T00:12:34;11.93;62.39
74178;DHT22;62540;48.456;-4.456;2023-04-25T00:15:01;11.87;62.50
74178;DHT22;62540;48.456;-4.456;2023-04-25T00:17:26;11.87;62.60
74178;DHT22;62540;48.456;-4.456;2023-04-25T00:19:52;11.84;62.71
74178;DHT22;62540;48.456;-4.456;2023-04-25T00:22:17;11.84;62.64
74178;DHT22;62540;48.456;-4.456;2023-04-25T00:24:43;11.79;62.64
74178;DHT22;62540;48.456;-4.456;2023-04-25T00:27:08;11.77;62.68
74178;DHT22;62540;48.456;-4.456;2023-04-25T00:29:34;11.76;62.80
74178;DHT22;62540;48.456;-4.456;2023-04-25T00:31:59;11.70;62.65
74178;DHT22;62540;48.456;-4.456;2023-04-25T00:34:25;11.70;62.68
74178;DHT22;62540;48.456;-4.456;2023-04-25T00:36:51;11.70;62.68
74178;DHT22;62540;48.456;-4.456;2023-04-25T00:39:18;11.63;62.79
74178;DHT22;62540;48.456;-4.456;2023-04-25T00:41:44;11.65;62.75
74178;DHT22;62540;48.456;-4.456;2023-04-25T00:44:11;11.65;62.89
74178;DHT22;62540;48.456;-4.456;2023-04-25T00:46:38;11.63;62.98
74178;DHT22;62540;48.456;-4.456;2023-04-25T00:49:03;11.61;63.10
74178;DHT22;62540;48.456;-4.456;2023-04-25T00:51:30;11.59;63.05
74178;DHT22;62540;48.456;-4.456;2023-04-25T00:53:56;11.55;63.10
74178;DHT22;62540;48.456;-4.456;2023-04-25T00:56:21;11.59;62.98
74178;DHT22;62540;48.456;-4.456;2023-04-25T00:58:47;11.58;62.88
74178;DHT22;62540;48.456;-4.456;2023-04-25T01:01:13;11.55;63.01
74178;DHT22;62540;48.456;-4.456;2023-04-25T01:03:39;11.51;63.13
74178;DHT22;62540;48.456;-4.456;2023-04-25T01:06:09;11.51;63.37
74178;DHT22;62540;48.456;-4.456;2023-04-25T01:08:36;11.47;63.39
74178;DHT22;62540;48.456;-4.456;2023-04-25T01:11:02;11.45;63.42
74178;DHT22;62540;48.456;-4.456;2023-04-25T01:13:28;11.46;63.48
74178;DHT22;62540;48.456;-4.456;2023-04-25T01:15:53;11.42;63.54
74178;DHT22;62540;48.456;-4.456;2023-04-25T01:18:19;11.39;63.68
74178;DHT22;62540;48.456;-4.456;2023-04-25T01:20:47;11.38;63.70
74178;DHT22;62540;48.456;-4.456;2023-04-25T01:23:14;11.40;63.52
74178;DHT22;62540;48.456;-4.456;2023-04-25T01:25:40;11.39;63.59
74178;DHT22;62540;48.456;-4.456;2023-04-25T01:28:05;11.38;63.68
74178;DHT22;62540;48.456;-4.456;2023-04-25T01:30:31;11.39;63.88
74178;DHT22;62540;48.456;-4.456;2023-04-25T01:32:56;11.40;64.06
74178;DHT22;62540;48.456;-4.456;2023-04-25T01:35:22;11.40;64.17
74178;DHT22;62540;48.456;-4.456;2023-04-25T01:37:49;11.45;64.22
74178;DHT22;62540;48.456;-4.456;2023-04-25T01:40:15;11.42;64.22
74178;DHT22;62540;48.456;-4.456;2023-04-25T01:42:43;11.45;64.41
74178;DHT22;62540;48.456;-4.456;2023-04-25T01:45:12;11.47;64.55
74178;DHT22;62540;48.456;-4.456;2023-04-25T01:47:38;11.49;64.56
74178;DHT22;62540;48.456;-4.456;2023-04-25T01:50:06;11.51;64.50
74178;DHT22;62540;48.456;-4.456;2023-04-25T01:52:32;11.55;64.55
74178;DHT22;62540;48.456;-4.456;2023-04-25T01:54:59;11.58;64.88
74178;DHT22;62540;48.456;-4.456;2023-04-25T01:57:26;11.59;64.88
74178;DHT22;62540;48.456;-4.456;2023-04-25T01:59:52;11.61;64.92
74178;DHT22;62540;48.456;-4.456;2023-04-25T02:02:19;11.65;64.87
74178;DHT22;62540;48.456;-4.456;2023-04-25T02:04:45;11.69;64.80
74178;DHT22;62540;48.456;-4.456;2023-04-25T02:07:10;11.73;64.77
74178;DHT22;62540;48.456;-4.456;2023-04-25T02:09:36;11.72;65.07
74178;DHT22;62540;48.456;-4.456;2023-04-25T02:12:01;11.70;65.07
74178;DHT22;62540;48.456;-4.456;2023-04-25T02:14:27;11.74;65.11
74178;DHT22;62540;48.456;-4.456;2023-04-25T02:16:52;11.77;65.11
74178;DHT22;62540;48.456;-4.456;2023-04-25T02:19:17;11.79;65.31
74178;DHT22;62540;48.456;-4.456;2023-04-25T02:21:43;11.79;65.39
74178;DHT22;62540;48.456;-4.456;2023-04-25T02:24:08;11.83;65.24
74178;DHT22;62540;48.456;-4.456;2023-04-25T02:26:34;11.86;64.97
74178;DHT22;62540;48.456;-4.456;2023-04-25T02:28:59;11.87;64.94
74178;DHT22;62540;48.456;-4.456;2023-04-25T02:31:25;11.83;65.06
74178;DHT22;62540;48.456;-4.456;2023-04-25T02:33:51;11.83;65.10
74178;DHT22;62540;48.456;-4.456;2023-04-25T02:36:16;11.83;65.16
74178;DHT22;62540;48.456;-4.456;2023-04-25T02:38:42;11.82;65.15
74178;DHT22;62540;48.456;-4.456;2023-04-25T02:41:07;11.80;65.22
74178;DHT22;62540;48.456;-4.456;2023-04-25T02:43:32;11.84;64.98
74178;DHT22;62540;48.456;-4.456;2023-04-25T02:45:58;11.86;64.93
74178;DHT22;62540;48.456;-4.456;2023-04-25T02:48:23;11.89;64.84
74178;DHT22;62540;48.456;-4.456;2023-04-25T02:50:49;11.87;64.74
74178;DHT22;62540;48.456;-4.456;2023-04-25T02:53:14;11.84;64.63
74178;DHT22;62540;48.456;-4.456;2023-04-25T02:55:40;11.82;64.61
74178;DHT22;62540;48.456;-4.456;2023-04-25T02:58:05;11.79;64.64
74178;DHT22;62540;48.456;-4.456;2023-04-25T03:00:31;11.73;64.69
74178;DHT22;62540;48.456;-4.456;2023-04-25T03:02:56;11.70;64.36
74178;DHT22;62540;48.456;-4.456;2023-04-25T03:05:22;11.67;64.34
74178;DHT22;62540;48.456;-4.456;2023-04-25T03:07:47;11.63;64.43
74178;DHT22;62540;48.456;-4.456;2023-04-25T03:10:12;11.59;64.42
74178;DHT22;62540;48.456;-4.456;2023-04-25T03:12:38;11.56;64.39
74178;DHT22;62540;48.456;-4.456;2023-04-25T03:15:04;11.51;64.46
74178;DHT22;62540;48.456;-4.456;2023-04-25T03:17:29;11.47;64.43
74178;DHT22;62540;48.456;-4.456;2023-04-25T03:19:55;11.43;64.53
74178;DHT22;62540;48.456;-4.456;2023-04-25T03:22:21;11.43;64.54
74178;DHT22;62540;48.456;-4.456;2023-04-25T03:24:47;11.40;64.57
74178;DHT22;62540;48.456;-4.456;2023-04-25T03:27:12;11.42;64.44
74178;DHT22;62540;48.456;-4.456;2023-04-25T03:29:38;11.40;64.36
74178;DHT22;62540;48.456;-4.456;2023-04-25T03:32:03;11.36;64.26
74178;DHT22;62540;48.456;-4.456;2023-04-25T03:34:29;11.36;64.23
74178;DHT22;62540;48.456;-4.456;2023-04-25T03:36:54;11.31;64.36
74178;DHT22;62540;48.456;-4.456;2023-04-25T03:39:20;11.31;64.39
74178;DHT22;62540;48.456;-4.456;2023-04-25T03:41:45;11.29;64.30
74178;DHT22;62540;48.456;-4.456;2023-04-25T03:44:10;11.26;64.32
74178;DHT22;62540;48.456;-4.456;2023-04-25T03:46:36;11.19;64.18
74178;DHT22;62540;48.456;-4.456;2023-04-25T03:49:01;11.15;64.21
74178;DHT22;62540;48.456;-4.456;2023-04-25T03:51:27;11.12;64.24
74178;DHT22;62540;48.456;-4.456;2023-04-25T03:53:52;11.08;64.33
74178;DHT22;62540;48.456;-4.456;2023-04-25T03:56:18;11.03;64.45
74178;DHT22;62540;48.456;-4.456;2023-04-25T03:58:47;11.01;64.66
74178;DHT22;62540;48.456;-4.456;2023-04-25T04:01:12;10.97;64.81
74178;DHT22;62540;48.456;-4.456;2023-04-25T04:03:38;10.97;65.00
74178;DHT22;62540;48.456;-4.456;2023-04-25T04:06:04;10.95;65.11
74178;DHT22;62540;48.456;-4.456;2023-04-25T04:08:31;10.93;65.21
74178;DHT22;62540;48.456;-4.456;2023-04-25T04:10:57;10.90;65.51
74178;DHT22;62540;48.456;-4.456;2023-04-25T04:13:22;10.90;65.74
74178;DHT22;62540;48.456;-4.456;2023-04-25T04:15:48;10.87;65.86
74178;DHT22;62540;48.456;-4.456;2023-04-25T04:18:13;10.88;65.81
74178;DHT22;62540;48.456;-4.456;2023-04-25T04:20:39;10.91;65.82
74178;DHT22;62540;48.456;-4.456;2023-04-25T04:23:04;10.90;65.62
74178;DHT22;62540;48.456;-4.456;2023-04-25T04:25:30;10.93;65.57
74178;DHT22;62540;48.456;-4.456;2023-04-25T04:27:56;10.90;65.57
74178;DHT22;62540;48.456;-4.456;2023-04-25T04:30:23;10.90;65.49
74178;DHT22;62540;48.456;-4.456;2023-04-25T04:32:55;10.88;65.47
74178;DHT22;62540;48.456;-4.456;2023-04-25T04:35:21;10.87;65.39
74178;DHT22;62540;48.456;-4.456;2023-04-25T04:37:46;10.83;65.48
74178;DHT22;62540;48.456;-4.456;2023-04-25T04:40:13;10.83;65.63
74178;DHT22;62540;48.456;-4.456;2023-04-25T04:42:41;10.84;65.53
74178;DHT22;62540;48.456;-4.456;2023-04-25T04:45:07;10.85;65.47
74178;DHT22;62540;48.456;-4.456;2023-04-25T04:47:32;10.83;65.49
74178;DHT22;62540;48.456;-4.456;2023-04-25T04:49:59;10.81;65.72
74178;DHT22;62540;48.456;-4.456;2023-04-25T04:52:24;10.81;65.85
74178;DHT22;62540;48.456;-4.456;2023-04-25T04:54:50;10.80;65.87
74178;DHT22;62540;48.456;-4.456;2023-04-25T04:57:15;10.78;65.88
74178;DHT22;62540;48.456;-4.456;2023-04-25T04:59:41;10.76;66.01
74178;DHT22;62540;48.456;-4.456;2023-04-25T05:02:07;10.84;66.06
74178;DHT22;62540;48.456;-4.456;2023-04-25T05:04:32;10.83;66.02
74178;DHT22;62540;48.456;-4.456;2023-04-25T05:06:58;10.81;65.97
74178;DHT22;62540;48.456;-4.456;2023-04-25T05:09:23;10.81;66.09
74178;DHT22;62540;48.456;-4.456;2023-04-25T05:11:51;10.78;66.26
74178;DHT22;62540;48.456;-4.456;2023-04-25T05:14:16;10.80;66.32
74178;DHT22;62540;48.456;-4.456;2023-04-25T05:16:43;10.87;66.31
74178;DHT22;62540;48.456;-4.456;2023-04-25T05:19:08;10.90;66.14
74178;DHT22;62540;48.456;-4.456;2023-04-25T05:21:34;10.87;66.33
74178;DHT22;62540;48.456;-4.456;2023-04-25T05:23:59;10.85;66.44
74178;DHT22;62540;48.456;-4.456;2023-04-25T05:26:25;10.87;66.56
74178;DHT22;62540;48.456;-4.456;2023-04-25T05:28:51;10.85;66.63
74178;DHT22;62540;48.456;-4.456;2023-04-25T05:31:16;10.81;66.76
74178;DHT22;62540;48.456;-4.456;2023-04-25T05:33:42;10.81;66.79
74178;DHT22;62540;48.456;-4.456;2023-04-25T05:36:07;10.87;66.71
74178;DHT22;62540;48.456;-4.456;2023-04-25T05:38:33;10.90;66.79
74178;DHT22;62540;48.456;-4.456;2023-04-25T05:40:58;10.91;66.83
74178;DHT22;62540;48.456;-4.456;2023-04-25T05:43:24;10.94;66.96
74178;DHT22;62540;48.456;-4.456;2023-04-25T05:45:49;10.94;67.19
74178;DHT22;62540;48.456;-4.456;2023-04-25T05:48:15;10.95;67.42
74178;DHT22;62540;48.456;-4.456;2023-04-25T05:50:40;10.93;67.59
74178;DHT22;62540;48.456;-4.456;2023-04-25T05:53:06;10.93;67.81
74178;DHT22;62540;48.456;-4.456;2023-04-25T05:55:31;10.98;67.91
74178;DHT22;62540;48.456;-4.456;2023-04-25T05:57:57;10.95;67.99
74178;DHT22;62540;48.456;-4.456;2023-04-25T06:00:22;10.95;68.14
74178;DHT22;62540;48.456;-4.456;2023-04-25T06:02:48;10.94;68.28
74178;DHT22;62540;48.456;-4.456;2023-04-25T06:05:14;10.95;68.33
74178;DHT22;62540;48.456;-4.456;2023-04-25T06:07:39;10.93;68.40
74178;DHT22;62540;48.456;-4.456;2023-04-25T06:10:05;10.91;68.64
74178;DHT22;62540;48.456;-4.456;2023-04-25T06:12:32;10.93;68.88
74178;DHT22;62540;48.456;-4.456;2023-04-25T06:14:58;10.90;68.98
74178;DHT22;62540;48.456;-4.456;2023-04-25T06:17:24;10.91;69.07
74178;DHT22;62540;48.456;-4.456;2023-04-25T06:19:49;10.90;69.04
74178;DHT22;62540;48.456;-4.456;2023-04-25T06:22:14;10.91;69.18
74178;DHT22;62540;48.456;-4.456;2023-04-25T06:24:40;10.95;69.20
74178;DHT22;62540;48.456;-4.456;2023-04-25T06:27:05;11.03;69.30
74178;DHT22;62540;48.456;-4.456;2023-04-25T06:29:30;11.04;70.00
74178;DHT22;62540;48.456;-4.456;2023-04-25T06:31:56;11.08;69.56
74178;DHT22;62540;48.456;-4.456;2023-04-25T06:34:22;11.14;69.72
74178;DHT22;62540;48.456;-4.456;2023-04-25T06:36:47;11.18;69.72
74178;DHT22;62540;48.456;-4.456;2023-04-25T06:39:13;11.21;69.83
74178;DHT22;62540;48.456;-4.456;2023-04-25T06:41:38;11.25;70.48
74178;DHT22;62540;48.456;-4.456;2023-04-25T06:44:04;11.22;70.31
74178;DHT22;62540;48.456;-4.456;2023-04-25T06:46:29;11.25;70.17
74178;DHT22;62540;48.456;-4.456;2023-04-25T06:48:55;11.28;70.40
74178;DHT22;62540;48.456;-4.456;2023-04-25T06:51:20;11.35;70.00
74178;DHT22;62540;48.456;-4.456;2023-04-25T06:53:46;11.38;70.25
74178;DHT22;62540;48.456;-4.456;2023-04-25T06:56:11;11.42;70.01
74178;DHT22;62540;48.456;-4.456;2023-04-25T06:58:37;11.47;69.96
74178;DHT22;62540;48.456;-4.456;2023-04-25T07:01:02;11.46;69.81
74178;DHT22;62540;48.456;-4.456;2023-04-25T07:03:28;11.56;69.57
74178;DHT22;62540;48.456;-4.456;2023-04-25T07:05:53;11.61;69.84
74178;DHT22;62540;48.456;-4.456;2023-04-25T07:08:18;11.63;69.55
74178;DHT22;62540;48.456;-4.456;2023-04-25T07:10:44;11.65;69.55
74178;DHT22;62540;48.456;-4.456;2023-04-25T07:13:11;11.72;69.70
74178;DHT22;62540;48.456;-4.456;2023-04-25T07:15:36;11.77;69.90
74178;DHT22;62540;48.456;-4.456;2023-04-25T07:18:02;11.87;69.77
74178;DHT22;62540;48.456;-4.456;2023-04-25T07:20:27;11.91;69.66
74178;DHT22;62540;48.456;-4.456;2023-04-25T07:22:53;12.04;69.46
74178;DHT22;62540;48.456;-4.456;2023-04-25T07:25:18;12.28;69.19
74178;DHT22;62540;48.456;-4.456;2023-04-25T07:27:44;12.51;68.56
74178;DHT22;62540;48.456;-4.456;2023-04-25T07:30:09;12.69;68.78
74178;DHT22;62540;48.456;-4.456;2023-04-25T07:32:35;12.73;67.42
74178;DHT22;62540;48.456;-4.456;2023-04-25T07:35:01;12.79;67.63
74178;DHT22;62540;48.456;-4.456;2023-04-25T07:37:27;12.76;67.46
74178;DHT22;62540;48.456;-4.456;2023-04-25T07:39:52;12.82;67.49
74178;DHT22;62540;48.456;-4.456;2023-04-25T07:42:17;12.96;67.33
74178;DHT22;62540;48.456;-4.456;2023-04-25T07:44:43;13.02;66.18
74178;DHT22;62540;48.456;-4.456;2023-04-25T07:47:09;13.16;66.26
74178;DHT22;62540;48.456;-4.456;2023-04-25T07:49:36;13.37;66.33
74178;DHT22;62540;48.456;-4.456;2023-04-25T07:52:05;13.51;65.52
74178;DHT22;62540;48.456;-4.456;2023-04-25T07:54:31;13.78;63.79
74178;DHT22;62540;48.456;-4.456;2023-04-25T07:56:57;13.75;64.34
74178;DHT22;62540;48.456;-4.456;2023-04-25T07:59:23;13.65;63.70
74178;DHT22;62540;48.456;-4.456;2023-04-25T08:01:48;13.62;64.34
74178;DHT22;62540;48.456;-4.456;2023-04-25T08:04:14;13.72;63.80
74178;DHT22;62540;48.456;-4.456;2023-04-25T08:06:39;13.81;62.78
74178;DHT22;62540;48.456;-4.456;2023-04-25T08:09:06;14.01;62.98
74178;DHT22;62540;48.456;-4.456;2023-04-25T08:11:31;14.15;63.10
74178;DHT22;62540;48.456;-4.456;2023-04-25T08:13:57;14.57;62.19
74178;DHT22;62540;48.456;-4.456;2023-04-25T08:16:23;15.11;61.58
74178;DHT22;62540;48.456;-4.456;2023-04-25T08:18:50;15.66;59.42
74178;DHT22;62540;48.456;-4.456;2023-04-25T08:21:15;16.03;56.36
74178;DHT22;62540;48.456;-4.456;2023-04-25T08:23:41;16.03;57.26
74178;DHT22;62540;48.456;-4.456;2023-04-25T08:26:06;15.97;56.39
74178;DHT22;62540;48.456;-4.456;2023-04-25T08:28:32;15.91;56.49
74178;DHT22;62540;48.456;-4.456;2023-04-25T08:30:57;16.00;57.73
74178;DHT22;62540;48.456;-4.456;2023-04-25T08:33:23;15.96;54.78
74178;DHT22;62540;48.456;-4.456;2023-04-25T08:35:48;16.20;56.92
74178;DHT22;62540;48.456;-4.456;2023-04-25T08:38:14;16.14;55.05
74178;DHT22;62540;48.456;-4.456;2023-04-25T08:40:39;15.91;55.22
74178;DHT22;62540;48.456;-4.456;2023-04-25T08:43:08;15.57;55.65
74178;DHT22;62540;48.456;-4.456;2023-04-25T08:45:39;15.42;56.99
74178;DHT22;62540;48.456;-4.456;2023-04-25T08:48:12;15.52;57.55
74178;DHT22;62540;48.456;-4.456;2023-04-25T08:50:58;15.76;57.50
74178;DHT22;62540;48.456;-4.456;2023-04-25T08:53:27;16.11;54.81
74178;DHT22;62540;48.456;-4.456;2023-04-25T08:55:57;16.45;55.74
74178;DHT22;62540;48.456;-4.456;2023-04-25T08:58:23;16.73;55.01
74178;DHT22;62540;48.456;-4.456;2023-04-25T09:00:50;17.02;53.25
74178;DHT22;62540;48.456;-4.456;2023-04-25T09:03:19;17.24;53.34
74178;DHT22;62540;48.456;-4.456;2023-04-25T09:05:44;17.35;52.83
74178;DHT22;62540;48.456;-4.456;2023-04-25T09:08:10;17.32;53.05
74178;DHT22;62540;48.456;-4.456;2023-04-25T09:10:36;17.13;52.16
74178;DHT22;62540;48.456;-4.456;2023-04-25T09:15:47;16.90;53.51
74178;DHT22;62540;48.456;-4.456;2023-04-25T09:18:12;16.82;52.76
74178;DHT22;62540;48.456;-4.456;2023-04-25T09:20:44;16.62;51.47
74178;DHT22;62540;48.456;-4.456;2023-04-25T09:23:09;16.53;53.39
74178;DHT22;62540;48.456;-4.456;2023-04-25T09:25:36;16.52;52.85
74178;DHT22;62540;48.456;-4.456;2023-04-25T09:28:05;16.48;53.48
74178;DHT22;62540;48.456;-4.456;2023-04-25T09:30:34;16.49;53.35
74178;DHT22;62540;48.456;-4.456;2023-04-25T09:33:08;16.56;53.72
74178;DHT22;62540;48.456;-4.456;2023-04-25T09:35:39;16.69;53.54
74178;DHT22;62540;48.456;-4.456;2023-04-25T09:38:12;16.87;53.24
74178;DHT22;62540;48.456;-4.456;2023-04-25T09:40:43;17.03;52.68
74178;DHT22;62540;48.456;-4.456;2023-04-25T09:43:29;17.00;53.40
74178;DHT22;62540;48.456;-4.456;2023-04-25T09:45:54;16.84;51.84
74178;DHT22;62540;48.456;-4.456;2023-04-25T09:48:25;16.79;53.37
74178;DHT22;62540;48.456;-4.456;2023-04-25T09:53:28;16.75;53.69
74178;DHT22;62540;48.456;-4.456;2023-04-25T09:55:55;16.59;52.78
74178;DHT22;62540;48.456;-4.456;2023-04-25T09:58:23;16.56;53.04
74178;DHT22;62540;48.456;-4.456;2023-04-25T10:00:50;16.53;53.76
74178;DHT22;62540;48.456;-4.456;2023-04-25T10:03:17;16.52;53.61
74178;DHT22;62540;48.456;-4.456;2023-04-25T10:05:44;16.66;53.76
74178;DHT22;62540;48.456;-4.456;2023-04-25T10:08:12;16.89;52.58
74178;DHT22;62540;48.456;-4.456;2023-04-25T10:10:40;17.02;52.27
74178;DHT22;62540;48.456;-4.456;2023-04-25T10:13:05;17.04;52.38
74178;DHT22;62540;48.456;-4.456;2023-04-25T10:15:35;17.03;50.75
74178;DHT22;62540;48.456;-4.456;2023-04-25T10:18:04;16.99;51.46
74178;DHT22;62540;48.456;-4.456;2023-04-25T10:20:32;17.06;52.27
74178;DHT22;62540;48.456;-4.456;2023-04-25T10:23:21;17.17;52.17
74178;DHT22;62540;48.456;-4.456;2023-04-25T10:25:48;17.28;51.93
74178;DHT22;62540;48.456;-4.456;2023-04-25T10:28:14;17.32;51.41
74178;DHT22;62540;48.456;-4.456;2023-04-25T10:31:03;17.35;51.16
74178;DHT22;62540;48.456;-4.456;2023-04-25T10:33:40;17.21;49.55
74178;DHT22;62540;48.456;-4.456;2023-04-25T10:36:12;17.02;49.51
74178;DHT22;62540;48.456;-4.456;2023-04-25T10:38:38;16.89;50.96
74178;DHT22;62540;48.456;-4.456;2023-04-25T10:41:05;16.94;52.34
74178;DHT22;62540;48.456;-4.456;2023-04-25T10:46:22;17.19;52.12
74178;DHT22;62540;48.456;-4.456;2023-04-25T10:48:49;17.41;51.26
74178;DHT22;62540;48.456;-4.456;2023-04-25T10:53:58;17.86;48.88
74178;DHT22;62540;48.456;-4.456;2023-04-25T10:59:05;18.06;50.00
74178;DHT22;62540;48.456;-4.456;2023-04-25T11:01:36;18.06;47.34
74178;DHT22;62540;48.456;-4.456;2023-04-25T11:04:02;17.95;46.40
74178;DHT22;62540;48.456;-4.456;2023-04-25T11:09:03;17.74;46.55
74178;DHT22;62540;48.456;-4.456;2023-04-25T11:11:36;17.48;46.22
74178;DHT22;62540;48.456;-4.456;2023-04-25T11:14:02;17.45;47.74
74178;DHT22;62540;48.456;-4.456;2023-04-25T11:16:27;17.59;47.69
74178;DHT22;62540;48.456;-4.456;2023-04-25T11:18:57;17.72;48.33
74178;DHT22;62540;48.456;-4.456;2023-04-25T11:21:22;17.77;47.97
74178;DHT22;62540;48.456;-4.456;2023-04-25T11:23:47;17.58;47.61
74178;DHT22;62540;48.456;-4.456;2023-04-25T11:26:13;17.49;47.31
74178;DHT22;62540;48.456;-4.456;2023-04-25T11:28:39;17.35;47.64
74178;DHT22;62540;48.456;-4.456;2023-04-25T11:31:04;17.40;48.48
74178;DHT22;62540;48.456;-4.456;2023-04-25T11:33:30;17.45;49.03
74178;DHT22;62540;48.456;-4.456;2023-04-25T11:35:55;17.54;48.70
74178;DHT22;62540;48.456;-4.456;2023-04-25T11:38:22;17.64;48.85
74178;DHT22;62540;48.456;-4.456;2023-04-25T11:40:52;17.68;46.92
74178;DHT22;62540;48.456;-4.456;2023-04-25T11:43:19;17.72;46.58
74178;DHT22;62540;48.456;-4.456;2023-04-25T11:45:49;17.88;47.22
74178;DHT22;62540;48.456;-4.456;2023-04-25T11:48:16;17.96;45.86
74178;DHT22;62540;48.456;-4.456;2023-04-25T11:50:41;18.00;46.07
74178;DHT22;62540;48.456;-4.456;2023-04-25T11:53:07;17.96;47.31
74178;DHT22;62540;48.456;-4.456;2023-04-25T11:55:33;18.09;47.60
74178;DHT22;62540;48.456;-4.456;2023-04-25T11:58:00;18.05;46.65
74178;DHT22;62540;48.456;-4.456;2023-04-25T12:00:26;18.02;46.67
74178;DHT22;62540;48.456;-4.456;2023-04-25T12:02:53;18.05;47.03
74178;DHT22;62540;48.456;-4.456;2023-04-25T12:05:19;17.92;46.89
74178;DHT22;62540;48.456;-4.456;2023-04-25T12:07:45;17.85;46.90
74178;DHT22;62540;48.456;-4.456;2023-04-25T12:10:15;17.86;47.53
74178;DHT22;62540;48.456;-4.456;2023-04-25T12:12:42;17.89;47.36
74178;DHT22;62540;48.456;-4.456;2023-04-25T12:15:09;17.96;48.03
74178;DHT22;62540;48.456;-4.456;2023-04-25T12:17:36;17.96;48.20
74178;DHT22;62540;48.456;-4.456;2023-04-25T12:20:12;18.00;47.34
74178;DHT22;62540;48.456;-4.456;2023-04-25T12:22:37;18.05;47.16
74178;DHT22;62540;48.456;-4.456;2023-04-25T12:25:05;18.14;47.94
74178;DHT22;62540;48.456;-4.456;2023-04-25T12:27:32;18.26;47.68
74178;DHT22;62540;48.456;-4.456;2023-04-25T12:29:58;18.33;46.54
74178;DHT22;62540;48.456;-4.456;2023-04-25T12:32:24;18.32;47.49
74178;DHT22;62540;48.456;-4.456;2023-04-25T12:34:50;18.29;47.62
74178;DHT22;62540;48.456;-4.456;2023-04-25T12:37:16;18.20;47.46
74178;DHT22;62540;48.456;-4.456;2023-04-25T12:39:41;18.17;47.21
74178;DHT22;62540;48.456;-4.456;2023-04-25T12:42:07;18.19;47.25
74178;DHT22;62540;48.456;-4.456;2023-04-25T12:44:38;18.12;46.89
74178;DHT22;62540;48.456;-4.456;2023-04-25T12:47:04;18.05;47.70
74178;DHT22;62540;48.456;-4.456;2023-04-25T12:49:30;18.00;47.74
74178;DHT22;62540;48.456;-4.456;2023-04-25T12:51:56;17.93;48.13
74178;DHT22;62540;48.456;-4.456;2023-04-25T12:54:21;17.88;47.63
74178;DHT22;62540;48.456;-4.456;2023-04-25T12:56:46;17.77;47.19
74178;DHT22;62540;48.456;-4.456;2023-04-25T12:59:12;17.55;47.81
74178;DHT22;62540;48.456;-4.456;2023-04-25T13:01:37;17.37;48.03
74178;DHT22;62540;48.456;-4.456;2023-04-25T13:04:03;17.26;48.81
74178;DHT22;62540;48.456;-4.456;2023-04-25T13:06:28;17.21;48.84
74178;DHT22;62540;48.456;-4.456;2023-04-25T13:08:56;17.21;49.18
74178;DHT22;62540;48.456;-4.456;2023-04-25T13:11:21;17.27;49.17
74178;DHT22;62540;48.456;-4.456;2023-04-25T13:13:46;17.37;49.37
74178;DHT22;62540;48.456;-4.456;2023-04-25T13:16:12;17.45;49.31
74178;DHT22;62540;48.456;-4.456;2023-04-25T13:18:39;17.47;49.04
74178;DHT22;62540;48.456;-4.456;2023-04-25T13:21:05;17.40;48.08
74178;DHT22;62540;48.456;-4.456;2023-04-25T13:23:30;17.45;49.91
74178;DHT22;62540;48.456;-4.456;2023-04-25T13:25:56;17.45;48.55
74178;DHT22;62540;48.456;-4.456;2023-04-25T13:28:27;17.55;49.11
74178;DHT22;62540;48.456;-4.456;2023-04-25T13:30:52;17.58;48.80
74178;DHT22;62540;48.456;-4.456;2023-04-25T13:33:18;17.59;48.69
74178;DHT22;62540;48.456;-4.456;2023-04-25T13:35:44;17.57;48.45
74178;DHT22;62540;48.456;-4.456;2023-04-25T13:38:12;17.49;48.52
74178;DHT22;62540;48.456;-4.456;2023-04-25T13:40:38;17.42;48.69
74178;DHT22;62540;48.456;-4.456;2023-04-25T13:43:03;17.34;47.94
74178;DHT22;62540;48.456;-4.456;2023-04-25T13:45:29;17.34;48.69
74178;DHT22;62540;48.456;-4.456;2023-04-25T13:47:55;17.42;49.14
74178;DHT22;62540;48.456;-4.456;2023-04-25T13:50:20;17.41;48.53
74178;DHT22;62540;48.456;-4.456;2023-04-25T13:52:46;17.28;47.33
74178;DHT22;62540;48.456;-4.456;2023-04-25T13:55:11;17.20;47.56
74178;DHT22;62540;48.456;-4.456;2023-04-25T13:57:37;17.19;48.41
74178;DHT22;62540;48.456;-4.456;2023-04-25T14:00:04;17.17;49.22
74178;DHT22;62540;48.456;-4.456;2023-04-25T14:02:37;17.24;49.36
74178;DHT22;62540;48.456;-4.456;2023-04-25T14:05:04;17.31;50.55
74178;DHT22;62540;48.456;-4.456;2023-04-25T14:07:30;17.31;51.35
74178;DHT22;62540;48.456;-4.456;2023-04-25T14:09:55;17.37;50.61
74178;DHT22;62540;48.456;-4.456;2023-04-25T14:12:22;17.24;50.59
74178;DHT22;62540;48.456;-4.456;2023-04-25T14:14:48;17.21;51.81
74178;DHT22;62540;48.456;-4.456;2023-04-25T14:17:13;17.28;50.65
74178;DHT22;62540;48.456;-4.456;2023-04-25T14:19:39;17.28;50.49
74178;DHT22;62540;48.456;-4.456;2023-04-25T14:22:08;17.35;50.15
74178;DHT22;62540;48.456;-4.456;2023-04-25T14:24:34;17.37;50.47
74178;DHT22;62540;48.456;-4.456;2023-04-25T14:26:59;17.34;50.11
74178;DHT22;62540;48.456;-4.456;2023-04-25T14:29:26;17.41;52.91
74178;DHT22;62540;48.456;-4.456;2023-04-25T14:31:51;17.38;53.99
74178;DHT22;62540;48.456;-4.456;2023-04-25T14:34:17;17.38;54.50
74178;DHT22;62540;48.456;-4.456;2023-04-25T14:36:43;17.38;54.70
74178;DHT22;62540;48.456;-4.456;2023-04-25T14:39:08;17.26;55.27
74178;DHT22;62540;48.456;-4.456;2023-04-25T14:41:34;17.17;55.41
74178;DHT22;62540;48.456;-4.456;2023-04-25T14:43:59;17.10;55.96
74178;DHT22;62540;48.456;-4.456;2023-04-25T14:46:25;17.03;56.11
74178;DHT22;62540;48.456;-4.456;2023-04-25T14:48:51;16.96;56.04
74178;DHT22;62540;48.456;-4.456;2023-04-25T14:51:16;16.83;56.17
74178;DHT22;62540;48.456;-4.456;2023-04-25T14:53:42;16.80;57.40
74178;DHT22;62540;48.456;-4.456;2023-04-25T14:56:07;16.87;57.51
74178;DHT22;62540;48.456;-4.456;2023-04-25T14:58:33;16.91;56.81
74178;DHT22;62540;48.456;-4.456;2023-04-25T15:00:59;16.93;55.79
74178;DHT22;62540;48.456;-4.456;2023-04-25T15:03:25;16.97;55.66
74178;DHT22;62540;48.456;-4.456;2023-04-25T15:05:53;16.89;55.96
74178;DHT22;62540;48.456;-4.456;2023-04-25T15:08:20;16.89;56.06
74178;DHT22;62540;48.456;-4.456;2023-04-25T15:10:46;16.93;56.30
74178;DHT22;62540;48.456;-4.456;2023-04-25T15:13:11;16.99;56.46
74178;DHT22;62540;48.456;-4.456;2023-04-25T15:15:37;16.94;56.32
74178;DHT22;62540;48.456;-4.456;2023-04-25T15:18:02;16.94;56.20
74178;DHT22;62540;48.456;-4.456;2023-04-25T15:20:28;16.96;56.65
74178;DHT22;62540;48.456;-4.456;2023-04-25T15:22:53;17.03;57.69
74178;DHT22;62540;48.456;-4.456;2023-04-25T15:25:19;17.20;56.71